Time;durP1;ratioP1;P1;durP2;ratioP2;P2;SDS_P1;SDS_P2;PMS_P1;PMS_P2;Temp;Humidity;BMP_temperature;BMP_pressure;BME280_temperature;BME280_humidity;BME280_pressure;Samples;Min_cycle;Max_cycle;Signal;HPM_P1;HPM_P2
2023/04/15 00:00:39;;;;;;;0.20;0.15;;;;;;;;;;4932860;28;20179;-86
2023/04/15 00:03:12;;;;;;;0.20;0.10;;;;;;;;;;4933849;28;20053;-86
2023/04/15 00:05:47;;;;;;;0.20;0.10;;;;;;;;;;4949593;28;20038;-86
2023/04/15 00:08:14;;;;;;;0.20;0.10;;;;;;;;;;4930375;28;20045;-85
2023/04/15 00:11:01;;;;;;;0.20;0.00;;;;;;;;;;4934055;28;20046;-85
2023/04/15 00:13:30;;;;;;;0.20;0.10;;;;;;;;;;4930993;28;20042;-85
2023/04/15 00:15:58;;;;;;;0.40;0.35;;;;;;;;;;4929797;28;20043;-84
2023/04/15 00:18:30;;;;;;;0.20;0.10;;;;;;;;;;4937116;28;20440;-84
2023/04/15 00:20:57;;;;;;;0.30;0.20;;;;;;;;;;4950890;28;20523;-83
2023/04/15 00:23:26;;;;;;;0.20;0.13;;;;;;;;;;4931079;28;20054;-84
2023/04/15 00:25:55;;;;;;;0.20;0.10;;;;;;;;;;4963089;28;20670;-86
2023/04/15 00:28:24;;;;;;;0.20;0.10;;;;;;;;;;4929642;28;20072;-84
2023/04/15 00:30:50;;;;;;;0.20;0.10;;;;;;;;;;4927992;28;20496;-84
2023/04/15 00:33:35;;;;;;;0.20;0.10;;;;;;;;;;4941804;28;21178;-86
2023/04/15 00:36:13;;;;;;;0.20;0.10;;;;;;;;;;4942329;28;20432;-84
2023/04/15 00:38:39;;;;;;;0.20;0.20;;;;;;;;;;4932637;28;21094;-85
2023/04/15 00:41:06;;;;;;;0.20;0.10;;;;;;;;;;4949880;28;20054;-84
2023/04/15 00:43:32;;;;;;;0.20;0.10;;;;;;;;;;4932940;28;20497;-84
2023/04/15 00:45:59;;;;;;;0.20;0.10;;;;;;;;;;4942938;28;20608;-85
2023/04/15 00:48:27;;;;;;;0.22;0.15;;;;;;;;;;4935100;28;20039;-85
2023/04/15 00:50:53;;;;;;;0.20;0.10;;;;;;;;;;4948081;28;20051;-84
2023/04/15 00:53:22;;;;;;;0.20;0.10;;;;;;;;;;4933552;28;20046;-85
2023/04/15 00:55:48;;;;;;;0.20;0.10;;;;;;;;;;4929102;28;20501;-83
2023/04/15 00:58:14;;;;;;;0.20;0.10;;;;;;;;;;4948932;28;20055;-84
2023/04/15 01:00:41;;;;;;;0.20;0.13;;;;;;;;;;4932142;28;20081;-83
2023/04/15 01:03:14;;;;;;;0.20;0.10;;;;;;;;;;4924856;28;20046;-86
2023/04/15 01:05:40;;;;;;;0.20;0.10;;;;;;;;;;4931360;28;20053;-84
2023/04/15 01:08:06;;;;;;;0.20;0.10;;;;;;;;;;4929655;28;20039;-85
2023/04/15 01:10:33;;;;;;;0.20;0.20;;;;;;;;;;4933059;28;20035;-84
2023/04/15 01:12:59;;;;;;;0.98;0.38;;;;;;;;;;4952116;28;20066;-84
2023/04/15 01:15:26;;;;;;;0.20;0.20;;;;;;;;;;4936019;28;20035;-84
2023/04/15 01:17:52;;;;;;;0.20;0.10;;;;;;;;;;4932206;28;20122;-85
2023/04/15 01:20:25;;;;;;;0.20;0.20;;;;;;;;;;4929931;28;20121;-84
2023/04/15 01:22:54;;;;;;;0.20;0.10;;;;;;;;;;4948986;28;20043;-85
2023/04/15 01:25:33;;;;;;;0.47;0.28;;;;;;;;;;4933447;28;20502;-84
2023/04/15 01:27:59;;;;;;;0.20;0.10;;;;;;;;;;4947288;28;20078;-84
2023/04/15 01:30:26;;;;;;;0.20;0.10;;;;;;;;;;4933166;28;20078;-84
2023/04/15 01:32:54;;;;;;;0.25;0.20;;;;;;;;;;4935797;28;20105;-84
2023/04/15 01:35:21;;;;;;;0.20;0.10;;;;;;;;;;4949445;28;20097;-84
2023/04/15 01:37:47;;;;;;;0.20;0.10;;;;;;;;;;4941934;28;20039;-84
2023/04/15 01:40:14;;;;;;;0.20;0.10;;;;;;;;;;4935563;28;20451;-84
2023/04/15 01:42:48;;;;;;;0.20;0.10;;;;;;;;;;4933066;28;20039;-85
2023/04/15 01:45:17;;;;;;;0.85;0.63;;;;;;;;;;4932452;28;20054;-84
2023/04/15 01:47:45;;;;;;;0.20;0.10;;;;;;;;;;4931901;28;20042;-84
2023/04/15 01:50:11;;;;;;;0.20;0.10;;;;;;;;;;4949794;28;20081;-85
2023/04/15 01:52:38;;;;;;;0.20;0.10;;;;;;;;;;4936081;28;20055;-85
2023/04/15 01:55:07;;;;;;;0.30;0.20;;;;;;;;;;4955557;28;20070;-86
2023/04/15 01:57:44;;;;;;;0.20;0.10;;;;;;;;;;4940945;28;20071;-85
2023/04/15 02:00:14;;;;;;;0.20;0.10;;;;;;;;;;4934251;28;20088;-85
2023/04/15 02:02:40;;;;;;;0.20;0.10;;;;;;;;;;4957884;28;20038;-84
2023/04/15 02:05:06;;;;;;;0.65;0.30;;;;;;;;;;4940820;28;20566;-85
2023/04/15 02:07:32;;;;;;;0.63;0.35;;;;;;;;;;4942880;28;20106;-84
2023/04/15 02:09:58;;;;;;;0.35;0.17;;;;;;;;;;4959191;28;20074;-85
2023/04/15 02:12:24;;;;;;;0.20;0.10;;;;;;;;;;4942503;28;20081;-84
2023/04/15 02:14:50;;;;;;;0.20;0.10;;;;;;;;;;4937746;28;20066;-85
2023/04/15 02:17:19;;;;;;;0.20;0.10;;;;;;;;;;4939988;28;20054;-84
2023/04/15 02:19:45;;;;;;;0.25;0.13;;;;;;;;;;4946239;28;20073;-84
2023/04/15 02:22:17;;;;;;;0.20;0.10;;;;;;;;;;4936721;28;20101;-84
2023/04/15 02:24:46;;;;;;;0.20;0.10;;;;;;;;;;4930962;28;20487;-84
2023/04/15 02:30:35;;;;;;;0.20;0.10;;;;;;;;;;4942621;28;20046;-84
2023/04/15 02:33:36;;;;;;;0.20;0.10;;;;;;;;;;4947779;28;20038;-85
2023/04/15 02:36:17;;;;;;;0.20;0.10;;;;;;;;;;4927744;28;20078;-85
2023/04/15 02:38:46;;;;;;;0.20;0.10;;;;;;;;;;4947562;28;20031;-84
2023/04/15 02:41:35;;;;;;;0.20;0.10;;;;;;;;;;4932889;28;20514;-85
2023/04/15 02:44:11;;;;;;;0.20;0.10;;;;;;;;;;4944921;28;20050;-85
2023/04/15 02:46:49;;;;;;;0.20;0.10;;;;;;;;;;4933371;28;20038;-84
2023/04/15 02:49:34;;;;;;;0.20;0.10;;;;;;;;;;4935696;28;20069;-85
2023/04/15 02:52:03;;;;;;;0.90;0.32;;;;;;;;;;4952024;28;20065;-85
2023/04/15 02:54:32;;;;;;;1.05;0.65;;;;;;;;;;4935386;28;20105;-83
2023/04/15 02:57:00;;;;;;;0.20;0.10;;;;;;;;;;4932977;28;20512;-83
2023/04/15 02:59:26;;;;;;;0.20;0.10;;;;;;;;;;4949200;28;20089;-85
2023/04/15 03:01:52;;;;;;;0.20;0.20;;;;;;;;;;4926142;28;20050;-84
2023/04/15 03:04:18;;;;;;;0.20;0.10;;;;;;;;;;4942204;28;20113;-84
2023/04/15 03:06:50;;;;;;;0.28;0.28;;;;;;;;;;4944463;28;20042;-86
2023/04/15 03:09:29;;;;;;;0.20;0.10;;;;;;;;;;4948399;28;20427;-85
2023/04/15 03:32:49;;;;;;;0.20;0.10;;;;;;;;;;4922296;29;20048;-87
2023/04/15 03:35:52;;;;;;;0.20;0.10;;;;;;;;;;4911705;29;20052;-87
2023/04/15 03:38:24;;;;;;;0.40;0.20;;;;;;;;;;4913563;29;20345;-85
2023/04/15 03:45:08;;;;;;;0.20;0.10;;;;;;;;;;4784967;29;21288;-87
2023/04/15 03:51:47;;;;;;;0.20;0.20;;;;;;;;;;4843145;29;20507;-87
2023/04/15 03:58:43;;;;;;;0.20;0.10;;;;;;;;;;4775167;29;20571;-85
2023/04/15 04:02:01;;;;;;;;;;;;;;;;;;;;;
2023/04/15 04:05:05;;;;;;;0.20;0.10;;;;;;;;;;4740786;30;20112;-86
2023/04/15 04:08:38;;;;;;;;;;;;;;;;;;;;;
2023/04/15 04:11:53;;;;;;;0.20;0.10;;;;;;;;;;4787819;29;20045;-87
2023/04/15 04:18:44;;;;;;;0.20;0.10;;;;;;;;;;4846033;29;20052;-86
2023/04/15 04:21:38;;;;;;;;;;;;;;;;;;;;;
2023/04/15 04:25:05;;;;;;;;;;;;;;;;;;;;;
2023/04/15 04:34:17;;;;;;;0.20;0.10;;;;;;;;;;4894501;29;20060;-86
2023/04/15 04:47:21;;;;;;;;;;;;;;;;;;;;;
2023/04/15 06:19:19;;;;;;;0.30;0.30;;;;;;;;;;4965513;28;20038;-85
2023/04/15 06:22:05;;;;;;;;;;;;;;;;;;;;;
2023/04/15 06:25:04;;;;;;;0.20;0.10;;;;;;;;;;4954999;28;20411;-87
2023/04/15 06:28:00;;;;;;;2.92;0.47;;;;;;;;;;4930753;28;20063;-85
2023/04/15 06:34:01;;;;;;;0.20;0.13;;;;;;;;;;4890731;28;20143;-86
2023/04/15 06:36:27;;;;;;;0.20;0.10;;;;;;;;;;4932619;28;20058;-85
2023/04/15 06:38:56;;;;;;;0.20;0.10;;;;;;;;;;4949931;28;20082;-84
2023/04/15 06:41:25;;;;;;;0.20;0.13;;;;;;;;;;4938408;28;20038;-85
2023/04/15 06:44:09;;;;;;;0.20;0.20;;;;;;;;;;4952164;28;20046;-82
2023/04/15 06:50:44;;;;;;;0.20;0.10;;;;;;;;;;4914491;28;20128;-87
2023/04/15 06:53:39;;;;;;;0.20;0.10;;;;;;;;;;4947411;28;20061;-88
2023/04/15 06:56:46;;;;;;;;;;;;;;;;;;;;;
2023/04/15 06:59:31;;;;;;;0.20;0.10;;;;;;;;;;4944778;28;20137;-87
2023/04/15 07:01:57;;;;;;;0.22;0.13;;;;;;;;;;4934815;28;20157;-86
2023/04/15 07:04:31;;;;;;;0.20;0.10;;;;;;;;;;4949886;28;20142;-86
2023/04/15 07:07:18;;;;;;;0.20;0.10;;;;;;;;;;4952103;28;20042;-84
2023/04/15 07:09:53;;;;;;;0.40;0.30;;;;;;;;;;4950029;28;20034;-85
2023/04/15 07:12:22;;;;;;;0.20;0.10;;;;;;;;;;4927629;28;20047;-85
2023/04/15 07:14:56;;;;;;;0.20;0.10;;;;;;;;;;4949523;28;20073;-85
2023/04/15 07:17:22;;;;;;;0.63;0.20;;;;;;;;;;4934202;28;20411;-86
2023/04/15 07:20:35;;;;;;;0.20;0.10;;;;;;;;;;4945492;28;20145;-88
2023/04/15 07:23:09;;;;;;;0.20;0.10;;;;;;;;;;4871421;29;20048;-86
2023/04/15 07:25:43;;;;;;;0.20;0.10;;;;;;;;;;4867880;29;20052;-86
2023/04/15 07:28:12;;;;;;;0.20;0.10;;;;;;;;;;4902532;28;20047;-85
2023/04/15 07:30:53;;;;;;;0.20;0.10;;;;;;;;;;4949017;28;20042;-86
2023/04/15 07:33:19;;;;;;;0.20;0.10;;;;;;;;;;4936598;28;20451;-86
2023/04/15 07:35:57;;;;;;;0.20;0.10;;;;;;;;;;4931374;28;20034;-88
2023/04/15 07:38:55;;;;;;;2.65;0.77;;;;;;;;;;4921960;28;20121;-88
2023/04/15 07:41:40;;;;;;;0.20;0.20;;;;;;;;;;4896052;28;20487;-86
2023/04/15 07:44:42;;;;;;;0.20;0.10;;;;;;;;;;4920592;28;20064;-88
2023/04/15 07:51:35;;;;;;;;;;;;;;;;;;;;;
2023/04/15 07:54:19;;;;;;;0.20;0.20;;;;;;;;;;4959521;28;20051;-87
2023/04/15 07:56:52;;;;;;;0.20;0.10;;;;;;;;;;4952928;28;20046;-87
2023/04/15 07:59:33;;;;;;;1.85;0.63;;;;;;;;;;4948463;28;20622;-89
2023/04/15 08:02:23;;;;;;;0.20;0.10;;;;;;;;;;4903957;28;20085;-85
2023/04/15 08:05:03;;;;;;;0.20;0.10;;;;;;;;;;4936580;28;20426;-84
2023/04/15 08:07:37;;;;;;;0.50;0.40;;;;;;;;;;4942290;28;20043;-86
2023/04/15 08:10:17;;;;;;;0.20;0.10;;;;;;;;;;4935326;28;20081;-90
2023/04/15 08:12:43;;;;;;;0.20;0.10;;;;;;;;;;4957102;28;20130;-87
2023/04/15 08:15:09;;;;;;;0.20;0.10;;;;;;;;;;4931359;28;20134;-86
2023/04/15 08:17:35;;;;;;;0.20;0.10;;;;;;;;;;4944567;28;20049;-86
2023/04/15 08:20:13;;;;;;;0.20;0.10;;;;;;;;;;4938877;28;20047;-86
2023/04/15 08:22:50;;;;;;;0.20;0.10;;;;;;;;;;4931761;28;20058;-89
2023/04/15 08:25:20;;;;;;;0.20;0.10;;;;;;;;;;4930778;28;20059;-88
2023/04/15 08:28:06;;;;;;;0.20;0.10;;;;;;;;;;4950537;28;20130;-85
2023/04/15 08:30:43;;;;;;;0.20;0.10;;;;;;;;;;4931306;28;20043;-88
2023/04/15 08:33:15;;;;;;;0.20;0.10;;;;;;;;;;4935614;28;20093;-89
2023/04/15 08:35:47;;;;;;;0.20;0.10;;;;;;;;;;4931544;28;20043;-85
2023/04/15 08:38:16;;;;;;;0.20;0.10;;;;;;;;;;4942311;28;20039;-86
2023/04/15 08:40:45;;;;;;;0.20;0.10;;;;;;;;;;4920571;28;20034;-88
2023/04/15 08:43:25;;;;;;;0.20;0.10;;;;;;;;;;4938576;28;20038;-86
2023/04/15 08:45:57;;;;;;;0.20;0.10;;;;;;;;;;4943833;28;20050;-85
2023/04/15 08:48:39;;;;;;;0.20;0.20;;;;;;;;;;4932915;28;20055;-87
2023/04/15 08:51:15;;;;;;;0.20;0.10;;;;;;;;;;4942361;28;20051;-85
2023/04/15 08:53:42;;;;;;;0.20;0.10;;;;;;;;;;4954489;28;20073;-86
2023/04/15 08:56:19;;;;;;;0.20;0.10;;;;;;;;;;4936741;28;20074;-87
2023/04/15 08:59:06;;;;;;;0.20;0.10;;;;;;;;;;4955676;28;20570;-86
2023/04/15 09:01:37;;;;;;;0.20;0.10;;;;;;;;;;4931365;28;20064;-85
2023/04/15 09:04:22;;;;;;;0.20;0.10;;;;;;;;;;4946778;28;20500;-87
2023/04/15 09:07:01;;;;;;;0.20;0.10;;;;;;;;;;4966458;28;20054;-86
2023/04/15 09:09:30;;;;;;;0.20;0.10;;;;;;;;;;4949182;28;20126;-88
2023/04/15 09:12:25;;;;;;;0.20;0.10;;;;;;;;;;4969423;23;20047;-87
2023/04/15 09:15:09;;;;;;;0.20;0.10;;;;;;;;;;4942338;28;20044;-86
2023/04/15 09:18:17;;;;;;;0.20;0.10;;;;;;;;;;4943857;28;20043;-87
2023/04/15 09:21:04;;;;;;;0.20;0.10;;;;;;;;;;4933761;28;20031;-86
2023/04/15 09:23:33;;;;;;;0.20;0.10;;;;;;;;;;4944462;28;20440;-84
2023/04/15 09:25:59;;;;;;;0.20;0.10;;;;;;;;;;4946250;28;21739;-85
2023/04/15 09:32:13;;;;;;;0.20;0.15;;;;;;;;;;4937180;28;20047;-86
2023/04/15 09:35:08;;;;;;;0.20;0.20;;;;;;;;;;4943173;28;20054;-85
2023/04/15 09:37:37;;;;;;;0.20;0.10;;;;;;;;;;4928464;28;20512;-88
2023/04/15 09:40:17;;;;;;;0.20;0.10;;;;;;;;;;4929300;29;20050;-87
2023/04/15 09:43:05;;;;;;;0.20;0.10;;;;;;;;;;4928082;28;20067;-85
2023/04/15 09:45:32;;;;;;;0.38;0.38;;;;;;;;;;4944646;28;20401;-86
2023/04/15 09:47:59;;;;;;;0.20;0.17;;;;;;;;;;4931456;29;20468;-84
2023/04/15 09:50:47;;;;;;;0.20;0.10;;;;;;;;;;4944236;28;20370;-86
2023/04/15 09:53:37;;;;;;;0.20;0.10;;;;;;;;;;4944671;28;20423;-87
2023/04/15 09:56:11;;;;;;;0.20;0.10;;;;;;;;;;4945742;28;20408;-84
2023/04/15 09:59:05;;;;;;;0.20;0.10;;;;;;;;;;4943280;28;20078;-86
2023/04/15 10:01:34;;;;;;;0.20;0.10;;;;;;;;;;4928695;28;20050;-84
2023/04/15 10:04:05;;;;;;;0.20;0.10;;;;;;;;;;4942850;28;20039;-86
2023/04/15 10:06:40;;;;;;;0.20;0.10;;;;;;;;;;4943766;28;20125;-86
2023/04/15 10:09:37;;;;;;;0.20;0.10;;;;;;;;;;4926991;29;20488;-85
2023/04/15 10:12:04;;;;;;;0.20;0.10;;;;;;;;;;4944822;28;20062;-84
2023/04/15 10:14:47;;;;;;;0.20;0.10;;;;;;;;;;4924893;28;20050;-85
2023/04/15 10:17:34;;;;;;;0.20;0.10;;;;;;;;;;4931262;29;20039;-87
2023/04/15 10:20:13;;;;;;;0.20;0.10;;;;;;;;;;4942075;28;20570;-88
2023/04/15 10:22:56;;;;;;;0.20;0.10;;;;;;;;;;4928207;28;20075;-86
2023/04/15 10:25:30;;;;;;;0.20;0.10;;;;;;;;;;4928821;29;20595;-86
2023/04/15 10:28:22;;;;;;;0.20;0.15;;;;;;;;;;4923119;29;20307;-87
2023/04/15 10:34:05;;;;;;;0.20;0.10;;;;;;;;;;4939094;28;21820;-87
2023/04/15 10:36:46;;;;;;;0.20;0.00;;;;;;;;;;4926218;29;20067;-88
2023/04/15 10:39:53;;;;;;;0.20;0.10;;;;;;;;;;4944538;28;20047;-87
2023/04/15 10:42:28;;;;;;;0.30;0.20;;;;;;;;;;4940965;28;20164;-84
2023/04/15 10:44:59;;;;;;;0.20;0.10;;;;;;;;;;4942898;28;20123;-85
2023/04/15 10:47:34;;;;;;;0.20;0.10;;;;;;;;;;4923848;29;20413;-86
2023/04/15 10:50:04;;;;;;;0.20;0.13;;;;;;;;;;4942739;28;20043;-87
2023/04/15 10:55:31;;;;;;;0.20;0.10;;;;;;;;;;4987912;23;20534;-87
2023/04/15 10:58:03;;;;;;;0.20;0.10;;;;;;;;;;4969108;28;20125;-84
2023/04/15 11:00:31;;;;;;;0.20;0.10;;;;;;;;;;4967285;28;20622;-84
2023/04/15 11:03:13;;;;;;;0.20;0.10;;;;;;;;;;4961324;28;20046;-85
2023/04/15 11:05:42;;;;;;;0.20;0.10;;;;;;;;;;4960135;28;20053;-85
2023/04/15 11:11:12;;;;;;;;;;;;;;;;;;4968118;28;20482;-85
2023/04/15 11:13:49;;;;;;;0.20;0.10;;;;;;;;;;4966366;28;20293;-88
2023/04/15 11:16:18;;;;;;;0.20;0.10;;;;;;;;;;4963038;28;20054;-87
2023/04/15 11:19:36;;;;;;;;;;;;;;;;;;;;;
2023/04/15 11:22:05;;;;;;;0.20;0.10;;;;;;;;;;4962358;28;20056;-88
2023/04/15 11:24:49;;;;;;;0.20;0.10;;;;;;;;;;4981449;28;20069;-83
2023/04/15 11:27:41;;;;;;;0.20;0.10;;;;;;;;;;4952341;28;20491;-86
2023/04/15 11:30:34;;;;;;;0.20;0.10;;;;;;;;;;4908487;29;20086;-85
2023/04/15 11:33:32;;;;;;;0.20;0.10;;;;;;;;;;4923658;29;20094;-86
2023/04/15 11:36:05;;;;;;;0.20;0.10;;;;;;;;;;4883833;29;20059;-87
2023/04/15 11:38:44;;;;;;;0.28;0.13;;;;;;;;;;4890572;29;20067;-85
2023/04/15 11:41:22;;;;;;;0.20;0.10;;;;;;;;;;4923897;28;20131;-84
2023/04/15 11:44:18;;;;;;;0.20;0.13;;;;;;;;;;4966171;28;20050;-87
2023/04/15 11:50:28;;;;;;;0.20;0.10;;;;;;;;;;4952332;28;20050;-87
2023/04/15 11:53:16;;;;;;;0.20;0.10;;;;;;;;;;4953182;23;20105;-88
2023/04/15 11:56:03;;;;;;;0.20;0.10;;;;;;;;;;4921695;28;20106;-85
2023/04/15 11:58:49;;;;;;;0.20;0.10;;;;;;;;;;4937706;28;20452;-84
2023/04/15 12:01:18;;;;;;;0.20;0.10;;;;;;;;;;4924848;29;20411;-87
2023/04/15 12:04:09;;;;;;;0.20;0.10;;;;;;;;;;4922381;28;20527;-86
2023/04/15 12:06:44;;;;;;;0.20;0.10;;;;;;;;;;4935808;28;20067;-87
2023/04/15 12:09:14;;;;;;;0.40;0.10;;;;;;;;;;4939765;28;20042;-85
2023/04/15 12:12:25;;;;;;;0.20;0.15;;;;;;;;;;4921529;28;20043;-87
2023/04/15 12:15:00;;;;;;;0.20;0.10;;;;;;;;;;4867111;29;20087;-86
2023/04/15 12:17:42;;;;;;;0.20;0.10;;;;;;;;;;4886767;28;20059;-85
2023/04/15 12:20:18;;;;;;;0.20;0.10;;;;;;;;;;4923337;29;20047;-85
2023/04/15 12:23:15;;;;;;;;;;;;;;;;;;;;;
2023/04/15 12:26:07;;;;;;;;;;;;;;;;;;;;;
2023/04/15 12:28:41;;;;;;;0.20;0.10;;;;;;;;;;4943793;28;20039;-85
2023/04/15 12:31:16;;;;;;;0.20;0.10;;;;;;;;;;4939619;28;20039;-86
2023/04/15 12:40:55;;;;;;;0.20;0.10;;;;;;;;;;4932687;28;20043;-85
2023/04/15 12:43:42;;;;;;;0.20;0.10;;;;;;;;;;4946319;28;20542;-89
2023/04/15 12:47:02;;;;;;;0.20;0.10;;;;;;;;;;4901364;29;20429;-86
2023/04/15 12:49:55;;;;;;;0.20;0.10;;;;;;;;;;4925562;29;20195;-88
2023/04/15 12:52:50;;;;;;;0.20;0.10;;;;;;;;;;4938833;28;20063;-86
2023/04/15 12:55:38;;;;;;;0.20;0.10;;;;;;;;;;4929574;29;20114;-86
2023/04/15 12:58:36;;;;;;;0.20;0.10;;;;;;;;;;4937944;28;20050;-88
2023/04/15 13:03:45;;;;;;;0.20;0.10;;;;;;;;;;4976641;23;20130;-85
2023/04/15 13:10:27;;;;;;;;;;;;;;;;;;;;;
2023/04/15 13:13:41;;;;;;;0.20;0.10;;;;;;;;;;4972875;23;20053;-84
2023/04/15 13:16:33;;;;;;;0.20;0.10;;;;;;;;;;4950059;28;20055;-84
2023/04/15 13:19:18;;;;;;;0.20;0.10;;;;;;;;;;4961053;28;20514;-81
2023/04/15 13:22:05;;;;;;;0.20;0.10;;;;;;;;;;4955374;28;20043;-85
2023/04/15 13:24:45;;;;;;;0.20;0.10;;;;;;;;;;4934919;28;20055;-84
2023/04/15 13:27:19;;;;;;;0.22;0.10;;;;;;;;;;4947483;28;20555;-84
2023/04/15 13:29:51;;;;;;;0.20;0.10;;;;;;;;;;4925152;29;20058;-86
2023/04/15 13:32:40;;;;;;;0.20;0.10;;;;;;;;;;4920370;29;20061;-85
2023/04/15 13:41:56;;;;;;;0.20;0.10;;;;;;;;;;4943436;28;20051;-85
2023/04/15 13:44:56;;;;;;;0.20;0.10;;;;;;;;;;4869221;29;20037;-85
2023/04/15 13:47:33;;;;;;;0.20;0.10;;;;;;;;;;4943780;29;20848;-85
2023/04/15 13:53:35;;;;;;;0.20;0.10;;;;;;;;;;4914487;28;20043;-85
2023/04/15 13:56:10;;;;;;;0.20;0.10;;;;;;;;;;4932396;29;20047;-84
2023/04/15 13:58:45;;;;;;;0.20;0.10;;;;;;;;;;4949987;28;20047;-85
2023/04/15 14:06:49;;;;;;;0.20;0.10;;;;;;;;;;4972850;28;20046;-83
2023/04/15 14:09:23;;;;;;;0.20;0.10;;;;;;;;;;4966218;28;20053;-83
2023/04/15 14:11:59;;;;;;;0.20;0.10;;;;;;;;;;4952745;28;20034;-85
2023/04/15 14:14:27;;;;;;;0.20;0.10;;;;;;;;;;4945907;28;20034;-84
2023/04/15 14:17:47;;;;;;;0.20;0.10;;;;;;;;;;4949502;28;20042;-85
2023/04/15 14:20:25;;;;;;;0.20;0.10;;;;;;;;;;4914077;29;20039;-85
2023/04/15 14:25:54;;;;;;;0.20;0.10;;;;;;;;;;4926374;28;20075;-85
2023/04/15 14:28:38;;;;;;;0.20;0.10;;;;;;;;;;4960778;28;20118;-86
2023/04/15 14:34:05;;;;;;;0.20;0.10;;;;;;;;;;4993973;23;20077;-87
2023/04/15 14:36:50;;;;;;;0.20;0.20;;;;;;;;;;4949519;28;20281;-84
2023/04/15 14:39:26;;;;;;;0.20;0.10;;;;;;;;;;4948009;28;20050;-85
2023/04/15 14:42:15;;;;;;;0.20;0.10;;;;;;;;;;4949621;28;20806;-86
2023/04/15 14:44:59;;;;;;;0.20;0.10;;;;;;;;;;4947266;28;20438;-84
2023/04/15 14:47:37;;;;;;;0.20;0.10;;;;;;;;;;4962224;28;20046;-85
2023/04/15 14:50:18;;;;;;;0.20;0.10;;;;;;;;;;4959192;28;20412;-85
2023/04/15 14:56:45;;;;;;;0.20;0.10;;;;;;;;;;4938557;28;20404;-84
2023/04/15 14:59:13;;;;;;;0.20;0.10;;;;;;;;;;4952312;28;20113;-83
2023/04/15 15:01:45;;;;;;;0.20;0.10;;;;;;;;;;4957451;28;20463;-84
2023/04/15 15:04:43;;;;;;;0.20;0.10;;;;;;;;;;4941499;28;20129;-84
2023/04/15 15:07:49;;;;;;;0.20;0.10;;;;;;;;;;4979302;28;20111;-83
2023/04/15 15:10:38;;;;;;;0.20;0.10;;;;;;;;;;4959856;28;20125;-85
2023/04/15 15:13:11;;;;;;;0.20;0.10;;;;;;;;;;4964092;23;20666;-86
2023/04/15 15:15:39;;;;;;;0.20;0.10;;;;;;;;;;4924169;28;20039;-86
2023/04/15 15:18:38;;;;;;;0.20;0.10;;;;;;;;;;4940280;28;20047;-89
2023/04/15 15:24:21;;;;;;;0.20;0.10;;;;;;;;;;5066776;23;20204;-89
2023/04/15 15:30:37;;;;;;;0.20;0.10;;;;;;;;;;4957123;28;20133;-86
2023/04/15 15:33:06;;;;;;;0.20;0.10;;;;;;;;;;4960599;28;20454;-89
2023/04/15 15:38:55;;;;;;;0.63;0.60;;;;;;;;;;4958103;28;20054;-88
2023/04/15 15:41:28;;;;;;;1.02;0.45;;;;;;;;;;4956787;28;20037;-86
2023/04/15 15:44:39;;;;;;;;;;;;;;;;;;;;;
2023/04/15 15:47:26;;;;;;;0.20;0.10;;;;;;;;;;4978182;28;20212;-86
2023/04/15 15:50:28;;;;;;;;;;;;;;;;;;;;;
2023/04/15 15:53:03;;;;;;;0.20;0.20;;;;;;;;;;4966715;23;20113;-84
2023/04/15 15:55:38;;;;;;;0.20;0.10;;;;;;;;;;4958220;28;20039;-87
2023/04/15 15:58:24;;;;;;;0.20;0.10;;;;;;;;;;4953613;28;20054;-86
2023/04/15 16:00:53;;;;;;;0.20;0.10;;;;;;;;;;4975265;28;20045;-86
2023/04/15 16:03:45;;;;;;;0.20;0.10;;;;;;;;;;4950298;28;20121;-88
2023/04/15 16:06:14;;;;;;;0.20;0.10;;;;;;;;;;4877652;29;20056;-88
2023/04/15 16:08:43;;;;;;;0.20;0.10;;;;;;;;;;4934173;28;20524;-85
2023/04/15 16:11:25;;;;;;;;;;;;;;;;;;;;;
2023/04/15 16:14:18;;;;;;;0.20;0.20;;;;;;;;;;4957138;28;20043;-85
2023/04/15 16:16:52;;;;;;;0.20;0.10;;;;;;;;;;4923970;28;20047;-90
2023/04/15 16:19:41;;;;;;;0.20;0.10;;;;;;;;;;4957329;28;20511;-87
2023/04/15 16:22:22;;;;;;;0.20;0.10;;;;;;;;;;4923015;28;20100;-84
2023/04/15 16:24:50;;;;;;;0.20;0.10;;;;;;;;;;4938990;28;20042;-85
2023/04/15 16:27:41;;;;;;;0.30;0.30;;;;;;;;;;4956619;28;20400;-87
2023/04/15 16:30:22;;;;;;;0.20;0.10;;;;;;;;;;4939992;28;20051;-86
2023/04/15 16:32:51;;;;;;;0.20;0.10;;;;;;;;;;5020953;23;20050;-88
2023/04/15 16:35:18;;;;;;;0.20;0.10;;;;;;;;;;4940783;28;20039;-84
2023/04/15 16:41:06;;;;;;;0.20;0.10;;;;;;;;;;4955928;28;20503;-88
2023/04/15 16:43:38;;;;;;;0.20;0.10;;;;;;;;;;4954219;28;20384;-87
2023/04/15 16:46:07;;;;;;;0.20;0.10;;;;;;;;;;4960762;28;20042;-88
2023/04/15 16:48:36;;;;;;;0.20;0.10;;;;;;;;;;4976751;28;20038;-87
2023/04/15 16:51:02;;;;;;;0.43;0.20;;;;;;;;;;4947247;28;20047;-85
2023/04/15 16:53:31;;;;;;;0.20;0.10;;;;;;;;;;4966344;28;20034;-89
2023/04/15 16:56:00;;;;;;;0.20;0.10;;;;;;;;;;4956215;28;20121;-87
2023/04/15 16:58:39;;;;;;;0.20;0.10;;;;;;;;;;4972908;28;20070;-88
2023/04/15 17:01:14;;;;;;;0.20;0.10;;;;;;;;;;4952348;28;20054;-86
2023/04/15 17:03:44;;;;;;;0.20;0.10;;;;;;;;;;4968535;28;20045;-86
2023/04/15 17:06:10;;;;;;;0.20;0.10;;;;;;;;;;4955464;28;20446;-87
2023/04/15 17:08:51;;;;;;;0.20;0.10;;;;;;;;;;4964525;28;20660;-89
2023/04/15 17:11:19;;;;;;;0.20;0.10;;;;;;;;;;4947831;28;20074;-88
2023/04/15 17:13:48;;;;;;;0.50;0.30;;;;;;;;;;4971576;28;20600;-89
2023/04/15 17:16:17;;;;;;;0.20;0.10;;;;;;;;;;4944268;28;20438;-89
2023/04/15 17:19:18;;;;;;;0.20;0.10;;;;;;;;;;4970233;28;20049;-86
2023/04/15 17:21:53;;;;;;;0.20;0.10;;;;;;;;;;4968077;28;20050;-87
2023/04/15 17:24:25;;;;;;;0.20;0.10;;;;;;;;;;4965545;28;20053;-88
2023/04/15 17:27:00;;;;;;;0.20;0.10;;;;;;;;;;4963311;28;20050;-85
2023/04/15 17:29:26;;;;;;;0.20;0.10;;;;;;;;;;4975408;28;20042;-86
2023/04/15 17:31:59;;;;;;;0.20;0.10;;;;;;;;;;4970610;28;20038;-87
2023/04/15 17:34:25;;;;;;;0.43;0.43;;;;;;;;;;4962549;28;20046;-85
2023/04/15 17:36:54;;;;;;;0.20;0.10;;;;;;;;;;4972255;28;20043;-83
2023/04/15 17:39:32;;;;;;;0.20;0.10;;;;;;;;;;4973330;28;20502;-86
2023/04/15 17:42:10;;;;;;;0.20;0.10;;;;;;;;;;4956345;28;20042;-88
2023/04/15 17:44:36;;;;;;;0.20;0.10;;;;;;;;;;4955048;28;20049;-87
2023/04/15 17:47:16;;;;;;;0.20;0.10;;;;;;;;;;4973773;28;20050;-87
2023/04/15 17:49:43;;;;;;;0.30;0.20;;;;;;;;;;4970572;28;20092;-85
2023/04/15 17:52:14;;;;;;;0.20;0.10;;;;;;;;;;4967852;28;20106;-88
2023/04/15 17:54:44;;;;;;;0.20;0.10;;;;;;;;;;4973219;28;20046;-86
2023/04/15 17:57:11;;;;;;;0.20;0.10;;;;;;;;;;4971315;28;20035;-87
2023/04/15 17:59:37;;;;;;;0.20;0.10;;;;;;;;;;4955533;28;20562;-87
2023/04/15 18:02:10;;;;;;;0.20;0.10;;;;;;;;;;4955919;28;20038;-86
2023/04/15 18:04:50;;;;;;;0.20;0.10;;;;;;;;;;4950499;28;20034;-87
2023/04/15 18:07:25;;;;;;;0.20;0.10;;;;;;;;;;4960864;28;20046;-86
2023/04/15 18:09:55;;;;;;;0.30;0.20;;;;;;;;;;4954249;28;20049;-86
2023/04/15 18:12:28;;;;;;;0.20;0.10;;;;;;;;;;4970525;28;20049;-86
2023/04/15 18:14:57;;;;;;;0.32;0.25;;;;;;;;;;4988051;28;20077;-89
2023/04/15 18:17:29;;;;;;;0.20;0.10;;;;;;;;;;4955966;28;20042;-88
2023/04/15 18:20:02;;;;;;;0.20;0.10;;;;;;;;;;4971244;28;20041;-87
2023/04/15 18:22:31;;;;;;;1.05;0.50;;;;;;;;;;4956374;28;20049;-86
2023/04/15 18:25:02;;;;;;;0.20;0.10;;;;;;;;;;4977074;28;20524;-87
2023/04/15 18:27:29;;;;;;;0.20;0.10;;;;;;;;;;4975570;28;20046;-85
2023/04/15 18:30:01;;;;;;;0.55;0.30;;;;;;;;;;4966517;28;20066;-85
2023/04/15 18:32:29;;;;;;;0.20;0.10;;;;;;;;;;4954226;28;20539;-85
2023/04/15 18:35:01;;;;;;;0.20;0.10;;;;;;;;;;4975373;28;20050;-86
2023/04/15 18:37:36;;;;;;;0.20;0.10;;;;;;;;;;4969205;28;20501;-87
2023/04/15 18:40:05;;;;;;;0.20;0.10;;;;;;;;;;4968323;28;20181;-87
2023/04/15 18:42:34;;;;;;;0.20;0.20;;;;;;;;;;4964000;28;20053;-86
2023/04/15 18:45:03;;;;;;;0.20;0.10;;;;;;;;;;4950998;28;20058;-87
2023/04/15 18:47:29;;;;;;;0.47;0.47;;;;;;;;;;4976967;28;20046;-87
2023/04/15 18:49:58;;;;;;;0.98;0.65;;;;;;;;;;4969970;28;20412;-86
2023/04/15 18:52:29;;;;;;;0.20;0.10;;;;;;;;;;4970714;28;20050;-87
2023/04/15 18:55:04;;;;;;;0.20;0.10;;;;;;;;;;4953464;28;20065;-88
2023/04/15 18:57:41;;;;;;;0.20;0.10;;;;;;;;;;4966114;28;20062;-87
2023/04/15 19:00:21;;;;;;;0.20;0.10;;;;;;;;;;4985966;28;20041;-88
2023/04/15 19:02:53;;;;;;;0.63;0.63;;;;;;;;;;4969000;28;20034;-85
2023/04/15 19:05:22;;;;;;;0.20;0.10;;;;;;;;;;4954197;28;20048;-88
2023/04/15 19:07:52;;;;;;;0.20;0.10;;;;;;;;;;4975141;28;20041;-89
2023/04/15 19:10:26;;;;;;;0.20;0.10;;;;;;;;;;4948849;28;20503;-87
2023/04/15 19:13:04;;;;;;;0.20;0.10;;;;;;;;;;4963937;28;20116;-87
2023/04/15 19:15:36;;;;;;;0.20;0.10;;;;;;;;;;4964391;28;20664;-87
2023/04/15 19:18:09;;;;;;;0.20;0.20;;;;;;;;;;4967958;28;20614;-89
2023/04/15 19:20:40;;;;;;;0.20;0.10;;;;;;;;;;4950345;28;20065;-88
2023/04/15 19:23:12;;;;;;;0.20;0.20;;;;;;;;;;4952860;28;20430;-88
2023/04/15 19:25:44;;;;;;;0.52;0.52;;;;;;;;;;4968058;28;20108;-88
2023/04/15 19:28:13;;;;;;;0.20;0.10;;;;;;;;;;4958563;28;20053;-84
2023/04/15 19:30:42;;;;;;;0.20;0.10;;;;;;;;;;4972916;28;20125;-88
2023/04/15 19:33:13;;;;;;;0.20;0.10;;;;;;;;;;4967182;28;20504;-87
2023/04/15 19:35:48;;;;;;;0.20;0.10;;;;;;;;;;4972117;28;20113;-89
2023/04/15 19:38:22;;;;;;;0.20;0.10;;;;;;;;;;4952656;28;20061;-88
2023/04/15 19:40:54;;;;;;;0.20;0.10;;;;;;;;;;4982945;28;20038;-88
2023/04/15 19:43:59;;;;;;;0.20;0.10;;;;;;;;;;4925058;29;20103;-88
2023/04/15 19:46:29;;;;;;;0.20;0.10;;;;;;;;;;4907821;28;20073;-89